sensor_id;sensor_type;location;lat;lon;timestamp;P1;durP1;ratioP1;P2;durP2;ratioP2
7406;SDS011;3745;56.964;24.128;2023-03-12T00:00:37;3.00;;;1.20;;
7406;SDS011;3745;56.964;24.128;2023-03-12T00:03:04;3.33;;;1.27;;
7406;SDS011;3745;56.964;24.128;2023-03-12T00:05:30;3.17;;;1.03;;
7406;SDS011;3745;56.964;24.128;2023-03-12T00:07:55;1.43;;;1.20;;
7406;SDS011;3745;56.964;24.128;2023-03-12T00:10:24;1.00;;;0.90;;
7406;SDS011;3745;56.964;24.128;2023-03-12T00:12:50;1.40;;;1.20;;
7406;SDS011;3745;56.964;24.128;2023-03-12T00:15:17;2.07;;;1.17;;
7406;SDS011;3745;56.964;24.128;2023-03-12T00:17:42;1.73;;;1.00;;
7406;SDS011;3745;56.964;24.128;2023-03-12T00:20:08;4.20;;;1.43;;
7406;SDS011;3745;56.964;24.128;2023-03-12T00:22:34;2.80;;;1.40;;
7406;SDS011;3745;56.964;24.128;2023-03-12T00:25:00;1.70;;;1.43;;
7406;SDS011;3745;56.964;24.128;2023-03-12T00:27:28;3.10;;;1.63;;
7406;SDS011;3745;56.964;24.128;2023-03-12T00:29:53;1.50;;;1.40;;
7406;SDS011;3745;56.964;24.128;2023-03-12T00:32:19;1.23;;;1.23;;
7406;SDS011;3745;56.964;24.128;2023-03-12T00:34:52;1.37;;;1.10;;
7406;SDS011;3745;56.964;24.128;2023-03-12T00:37:20;4.00;;;1.20;;
7406;SDS011;3745;56.964;24.128;2023-03-12T00:39:46;2.27;;;1.47;;
7406;SDS011;3745;56.964;24.128;2023-03-12T00:42:12;2.87;;;1.30;;
7406;SDS011;3745;56.964;24.128;2023-03-12T00:44:38;1.67;;;1.27;;
7406;SDS011;3745;56.964;24.128;2023-03-12T00:47:04;1.57;;;1.43;;
7406;SDS011;3745;56.964;24.128;2023-03-12T00:49:30;2.37;;;1.50;;
7406;SDS011;3745;56.964;24.128;2023-03-12T00:51:56;3.93;;;2.00;;
7406;SDS011;3745;56.964;24.128;2023-03-12T00:54:21;3.83;;;1.50;;
7406;SDS011;3745;56.964;24.128;2023-03-12T00:56:47;4.10;;;1.40;;
7406;SDS011;3745;56.964;24.128;2023-03-12T00:59:13;2.10;;;1.70;;
7406;SDS011;3745;56.964;24.128;2023-03-12T01:01:40;1.50;;;1.40;;
7406;SDS011;3745;56.964;24.128;2023-03-12T01:04:06;1.93;;;1.80;;
7406;SDS011;3745;56.964;24.128;2023-03-12T01:06:32;2.17;;;1.83;;
7406;SDS011;3745;56.964;24.128;2023-03-12T01:08:57;2.13;;;1.70;;
7406;SDS011;3745;56.964;24.128;2023-03-12T01:11:25;2.53;;;1.77;;
7406;SDS011;3745;56.964;24.128;2023-03-12T01:13:50;2.50;;;1.30;;
7406;SDS011;3745;56.964;24.128;2023-03-12T01:16:16;1.60;;;1.50;;
7406;SDS011;3745;56.964;24.128;2023-03-12T01:18:41;3.70;;;1.40;;
7406;SDS011;3745;56.964;24.128;2023-03-12T01:21:07;1.93;;;1.50;;
7406;SDS011;3745;56.964;24.128;2023-03-12T01:23:32;1.30;;;1.07;;
7406;SDS011;3745;56.964;24.128;2023-03-12T01:25:58;1.10;;;1.10;;
7406;SDS011;3745;56.964;24.128;2023-03-12T01:28:24;1.87;;;1.40;;
7406;SDS011;3745;56.964;24.128;2023-03-12T01:30:51;3.10;;;1.40;;
7406;SDS011;3745;56.964;24.128;2023-03-12T01:33:16;2.30;;;1.20;;
7406;SDS011;3745;56.964;24.128;2023-03-12T01:35:42;3.10;;;1.20;;
7406;SDS011;3745;56.964;24.128;2023-03-12T01:38:11;1.57;;;1.13;;
7406;SDS011;3745;56.964;24.128;2023-03-12T01:40:39;1.63;;;1.53;;
7406;SDS011;3745;56.964;24.128;2023-03-12T01:49:00;2.23;;;1.27;;
7406;SDS011;3745;56.964;24.128;2023-03-12T01:51:38;1.77;;;1.27;;
7406;SDS011;3745;56.964;24.128;2023-03-12T01:54:11;1.50;;;1.20;;
7406;SDS011;3745;56.964;24.128;2023-03-12T01:56:41;2.00;;;1.20;;
7406;SDS011;3745;56.964;24.128;2023-03-12T01:59:17;1.37;;;1.27;;
7406;SDS011;3745;56.964;24.128;2023-03-12T02:01:47;1.10;;;1.00;;
7406;SDS011;3745;56.964;24.128;2023-03-12T02:04:15;2.93;;;1.03;;
7406;SDS011;3745;56.964;24.128;2023-03-12T02:06:57;1.30;;;1.20;;
7406;SDS011;3745;56.964;24.128;2023-03-12T02:12:19;4.33;;;1.00;;
7406;SDS011;3745;56.964;24.128;2023-03-12T02:14:44;2.50;;;1.30;;
7406;SDS011;3745;56.964;24.128;2023-03-12T02:17:10;4.20;;;1.20;;
7406;SDS011;3745;56.964;24.128;2023-03-12T02:22:16;1.47;;;1.37;;
7406;SDS011;3745;56.964;24.128;2023-03-12T02:24:47;1.63;;;1.30;;
7406;SDS011;3745;56.964;24.128;2023-03-12T02:27:19;1.10;;;1.00;;
7406;SDS011;3745;56.964;24.128;2023-03-12T02:29:46;1.10;;;1.10;;
7406;SDS011;3745;56.964;24.128;2023-03-12T02:32:15;1.33;;;1.20;;
7406;SDS011;3745;56.964;24.128;2023-03-12T02:34:45;2.47;;;1.40;;
7406;SDS011;3745;56.964;24.128;2023-03-12T02:37:12;0.93;;;0.93;;
7406;SDS011;3745;56.964;24.128;2023-03-12T02:39:38;1.30;;;1.20;;
7406;SDS011;3745;56.964;24.128;2023-03-12T02:42:06;0.97;;;0.97;;
7406;SDS011;3745;56.964;24.128;2023-03-12T02:44:32;1.37;;;1.27;;
7406;SDS011;3745;56.964;24.128;2023-03-12T02:47:00;1.23;;;1.13;;
7406;SDS011;3745;56.964;24.128;2023-03-12T02:49:27;1.40;;;1.30;;
7406;SDS011;3745;56.964;24.128;2023-03-12T02:51:54;1.27;;;1.17;;
7406;SDS011;3745;56.964;24.128;2023-03-12T02:54:21;2.80;;;1.30;;
7406;SDS011;3745;56.964;24.128;2023-03-12T02:56:47;2.03;;;1.53;;
7406;SDS011;3745;56.964;24.128;2023-03-12T02:59:13;2.50;;;1.40;;
7406;SDS011;3745;56.964;24.128;2023-03-12T03:01:39;2.00;;;1.87;;
7406;SDS011;3745;56.964;24.128;2023-03-12T03:04:06;2.30;;;1.60;;
7406;SDS011;3745;56.964;24.128;2023-03-12T03:06:34;3.17;;;1.83;;
7406;SDS011;3745;56.964;24.128;2023-03-12T03:09:03;2.20;;;1.40;;
7406;SDS011;3745;56.964;24.128;2023-03-12T03:11:30;2.10;;;1.00;;
7406;SDS011;3745;56.964;24.128;2023-03-12T03:13:55;3.07;;;1.17;;
7406;SDS011;3745;56.964;24.128;2023-03-12T03:16:22;2.43;;;1.30;;
7406;SDS011;3745;56.964;24.128;2023-03-12T03:18:48;1.77;;;1.33;;
7406;SDS011;3745;56.964;24.128;2023-03-12T03:21:14;1.43;;;1.33;;
7406;SDS011;3745;56.964;24.128;2023-03-12T03:23:44;1.70;;;1.57;;
7406;SDS011;3745;56.964;24.128;2023-03-12T03:26:11;2.33;;;1.43;;
7406;SDS011;3745;56.964;24.128;2023-03-12T03:28:37;4.97;;;1.50;;
7406;SDS011;3745;56.964;24.128;2023-03-12T03:31:03;1.67;;;1.57;;
7406;SDS011;3745;56.964;24.128;2023-03-12T03:33:30;1.47;;;1.30;;
7406;SDS011;3745;56.964;24.128;2023-03-12T03:35:58;2.57;;;1.60;;
7406;SDS011;3745;56.964;24.128;2023-03-12T03:38:26;3.03;;;1.53;;
7406;SDS011;3745;56.964;24.128;2023-03-12T03:40:52;2.70;;;1.60;;
7406;SDS011;3745;56.964;24.128;2023-03-12T03:43:18;1.70;;;1.60;;
7406;SDS011;3745;56.964;24.128;2023-03-12T03:45:44;2.00;;;1.77;;
7406;SDS011;3745;56.964;24.128;2023-03-12T03:48:10;2.73;;;1.70;;
7406;SDS011;3745;56.964;24.128;2023-03-12T03:50:37;1.90;;;1.80;;
7406;SDS011;3745;56.964;24.128;2023-03-12T03:53:03;2.17;;;1.80;;
7406;SDS011;3745;56.964;24.128;2023-03-12T03:55:30;2.47;;;1.97;;
7406;SDS011;3745;56.964;24.128;2023-03-12T03:57:55;2.27;;;2.00;;
7406;SDS011;3745;56.964;24.128;2023-03-12T04:00:21;1.90;;;1.80;;
7406;SDS011;3745;56.964;24.128;2023-03-12T04:02:47;4.03;;;1.93;;
7406;SDS011;3745;56.964;24.128;2023-03-12T04:05:12;2.10;;;1.90;;
7406;SDS011;3745;56.964;24.128;2023-03-12T04:07:40;2.70;;;2.30;;
7406;SDS011;3745;56.964;24.128;2023-03-12T04:10:06;2.50;;;2.30;;
7406;SDS011;3745;56.964;24.128;2023-03-12T04:12:32;4.73;;;2.40;;
7406;SDS011;3745;56.964;24.128;2023-03-12T04:14:57;5.67;;;2.47;;
7406;SDS011;3745;56.964;24.128;2023-03-12T04:17:23;2.20;;;2.00;;
7406;SDS011;3745;56.964;24.128;2023-03-12T04:19:49;4.67;;;2.40;;
7406;SDS011;3745;56.964;24.128;2023-03-12T04:22:14;5.23;;;2.37;;
7406;SDS011;3745;56.964;24.128;2023-03-12T04:24:40;4.20;;;2.37;;
7406;SDS011;3745;56.964;24.128;2023-03-12T04:27:05;3.10;;;2.40;;
7406;SDS011;3745;56.964;24.128;2023-03-12T04:29:31;3.23;;;2.80;;
7406;SDS011;3745;56.964;24.128;2023-03-12T04:31:57;3.57;;;2.83;;
7406;SDS011;3745;56.964;24.128;2023-03-12T04:34:22;4.07;;;2.83;;
7406;SDS011;3745;56.964;24.128;2023-03-12T04:36:48;6.13;;;3.47;;
7406;SDS011;3745;56.964;24.128;2023-03-12T04:39:17;3.60;;;3.23;;
7406;SDS011;3745;56.964;24.128;2023-03-12T04:41:44;4.37;;;2.73;;
7406;SDS011;3745;56.964;24.128;2023-03-12T04:44:10;4.23;;;2.53;;
7406;SDS011;3745;56.964;24.128;2023-03-12T04:46:36;2.57;;;2.37;;
7406;SDS011;3745;56.964;24.128;2023-03-12T04:49:01;7.07;;;2.27;;
7406;SDS011;3745;56.964;24.128;2023-03-12T04:51:28;5.67;;;2.70;;
7406;SDS011;3745;56.964;24.128;2023-03-12T04:53:55;2.60;;;2.23;;
7406;SDS011;3745;56.964;24.128;2023-03-12T04:56:22;4.83;;;2.20;;
7406;SDS011;3745;56.964;24.128;2023-03-12T04:58:48;3.10;;;2.30;;
7406;SDS011;3745;56.964;24.128;2023-03-12T05:01:24;2.67;;;2.20;;
7406;SDS011;3745;56.964;24.128;2023-03-12T05:03:54;5.50;;;2.63;;
7406;SDS011;3745;56.964;24.128;2023-03-12T05:06:20;3.57;;;2.40;;
7406;SDS011;3745;56.964;24.128;2023-03-12T05:08:47;2.30;;;2.20;;
7406;SDS011;3745;56.964;24.128;2023-03-12T05:11:13;3.27;;;2.70;;
7406;SDS011;3745;56.964;24.128;2023-03-12T05:13:39;2.87;;;2.23;;
7406;SDS011;3745;56.964;24.128;2023-03-12T05:16:04;3.00;;;2.80;;
7406;SDS011;3745;56.964;24.128;2023-03-12T05:18:31;2.67;;;2.40;;
7406;SDS011;3745;56.964;24.128;2023-03-12T05:21:00;3.90;;;2.53;;
7406;SDS011;3745;56.964;24.128;2023-03-12T05:23:27;4.70;;;2.93;;
7406;SDS011;3745;56.964;24.128;2023-03-12T05:25:53;3.80;;;2.60;;
7406;SDS011;3745;56.964;24.128;2023-03-12T05:28:19;6.30;;;2.63;;
7406;SDS011;3745;56.964;24.128;2023-03-12T05:30:45;3.50;;;2.77;;
7406;SDS011;3745;56.964;24.128;2023-03-12T05:33:11;4.10;;;2.53;;
7406;SDS011;3745;56.964;24.128;2023-03-12T05:35:37;3.27;;;2.97;;
7406;SDS011;3745;56.964;24.128;2023-03-12T05:38:03;8.47;;;3.10;;
7406;SDS011;3745;56.964;24.128;2023-03-12T05:40:29;10.80;;;4.03;;
7406;SDS011;3745;56.964;24.128;2023-03-12T05:42:54;7.17;;;3.70;;
7406;SDS011;3745;56.964;24.128;2023-03-12T05:45:20;7.03;;;4.13;;
7406;SDS011;3745;56.964;24.128;2023-03-12T05:47:46;5.83;;;4.07;;
7406;SDS011;3745;56.964;24.128;2023-03-12T05:50:11;4.93;;;4.13;;
7406;SDS011;3745;56.964;24.128;2023-03-12T05:52:37;7.27;;;4.20;;
7406;SDS011;3745;56.964;24.128;2023-03-12T05:55:03;4.13;;;3.20;;
7406;SDS011;3745;56.964;24.128;2023-03-12T05:57:29;5.47;;;3.27;;
7406;SDS011;3745;56.964;24.128;2023-03-12T05:59:54;5.53;;;3.50;;
7406;SDS011;3745;56.964;24.128;2023-03-12T06:02:20;4.13;;;3.27;;
7406;SDS011;3745;56.964;24.128;2023-03-12T06:04:45;4.23;;;2.93;;
7406;SDS011;3745;56.964;24.128;2023-03-12T06:07:11;4.10;;;3.17;;
7406;SDS011;3745;56.964;24.128;2023-03-12T06:09:36;7.77;;;3.10;;
7406;SDS011;3745;56.964;24.128;2023-03-12T06:12:02;3.23;;;2.93;;
7406;SDS011;3745;56.964;24.128;2023-03-12T06:14:28;5.53;;;3.13;;
7406;SDS011;3745;56.964;24.128;2023-03-12T06:16:54;5.67;;;3.30;;
7406;SDS011;3745;56.964;24.128;2023-03-12T06:19:19;4.27;;;2.97;;
7406;SDS011;3745;56.964;24.128;2023-03-12T06:21:45;4.53;;;3.00;;
7406;SDS011;3745;56.964;24.128;2023-03-12T06:24:10;4.70;;;3.27;;
7406;SDS011;3745;56.964;24.128;2023-03-12T06:26:36;6.07;;;3.03;;
7406;SDS011;3745;56.964;24.128;2023-03-12T06:29:02;4.90;;;3.17;;
7406;SDS011;3745;56.964;24.128;2023-03-12T06:31:28;5.67;;;3.20;;
7406;SDS011;3745;56.964;24.128;2023-03-12T06:33:53;4.43;;;3.07;;
7406;SDS011;3745;56.964;24.128;2023-03-12T06:36:19;3.27;;;2.80;;
7406;SDS011;3745;56.964;24.128;2023-03-12T06:38:45;9.53;;;3.00;;
7406;SDS011;3745;56.964;24.128;2023-03-12T06:41:12;6.60;;;2.77;;
7406;SDS011;3745;56.964;24.128;2023-03-12T06:43:39;3.80;;;2.50;;
7406;SDS011;3745;56.964;24.128;2023-03-12T06:46:06;4.40;;;3.07;;
7406;SDS011;3745;56.964;24.128;2023-03-12T06:48:32;5.63;;;3.03;;
7406;SDS011;3745;56.964;24.128;2023-03-12T06:51:03;4.13;;;2.73;;
7406;SDS011;3745;56.964;24.128;2023-03-12T06:53:29;5.57;;;3.23;;
7406;SDS011;3745;56.964;24.128;2023-03-12T06:55:55;2.83;;;2.63;;
7406;SDS011;3745;56.964;24.128;2023-03-12T06:58:21;3.70;;;3.17;;
7406;SDS011;3745;56.964;24.128;2023-03-12T07:00:46;7.53;;;3.17;;
7406;SDS011;3745;56.964;24.128;2023-03-12T07:03:12;3.30;;;3.10;;
7406;SDS011;3745;56.964;24.128;2023-03-12T07:05:38;7.23;;;3.70;;
7406;SDS011;3745;56.964;24.128;2023-03-12T07:08:03;10.03;;;4.17;;
7406;SDS011;3745;56.964;24.128;2023-03-12T07:10:29;5.53;;;3.90;;
7406;SDS011;3745;56.964;24.128;2023-03-12T07:12:55;7.23;;;3.90;;
7406;SDS011;3745;56.964;24.128;2023-03-12T07:15:21;7.50;;;4.20;;
7406;SDS011;3745;56.964;24.128;2023-03-12T07:17:47;8.17;;;4.10;;
7406;SDS011;3745;56.964;24.128;2023-03-12T07:20:13;5.83;;;3.87;;
7406;SDS011;3745;56.964;24.128;2023-03-12T07:22:39;6.17;;;4.07;;
7406;SDS011;3745;56.964;24.128;2023-03-12T07:25:04;6.53;;;4.43;;
7406;SDS011;3745;56.964;24.128;2023-03-12T07:27:30;7.07;;;4.07;;
7406;SDS011;3745;56.964;24.128;2023-03-12T07:29:56;4.27;;;3.80;;
7406;SDS011;3745;56.964;24.128;2023-03-12T07:32:22;14.10;;;4.60;;
7406;SDS011;3745;56.964;24.128;2023-03-12T07:34:47;7.00;;;4.63;;
7406;SDS011;3745;56.964;24.128;2023-03-12T07:37:13;9.70;;;5.10;;
7406;SDS011;3745;56.964;24.128;2023-03-12T07:39:38;7.70;;;5.27;;
7406;SDS011;3745;56.964;24.128;2023-03-12T07:42:04;9.97;;;5.47;;
7406;SDS011;3745;56.964;24.128;2023-03-12T07:44:30;9.67;;;5.90;;
7406;SDS011;3745;56.964;24.128;2023-03-12T07:46:56;6.13;;;4.83;;
7406;SDS011;3745;56.964;24.128;2023-03-12T07:49:21;10.23;;;5.53;;
7406;SDS011;3745;56.964;24.128;2023-03-12T07:51:47;10.97;;;5.23;;
7406;SDS011;3745;56.964;24.128;2023-03-12T07:54:12;10.53;;;5.80;;
7406;SDS011;3745;56.964;24.128;2023-03-12T07:56:38;7.33;;;4.83;;
7406;SDS011;3745;56.964;24.128;2023-03-12T07:59:04;10.53;;;6.17;;
7406;SDS011;3745;56.964;24.128;2023-03-12T08:01:29;10.77;;;6.50;;
7406;SDS011;3745;56.964;24.128;2023-03-12T08:03:59;10.23;;;6.20;;
7406;SDS011;3745;56.964;24.128;2023-03-12T08:06:26;11.47;;;5.30;;
7406;SDS011;3745;56.964;24.128;2023-03-12T08:08:53;6.33;;;4.63;;
7406;SDS011;3745;56.964;24.128;2023-03-12T08:11:19;11.00;;;4.70;;
7406;SDS011;3745;56.964;24.128;2023-03-12T08:13:45;12.27;;;5.07;;
7406;SDS011;3745;56.964;24.128;2023-03-12T08:16:10;7.63;;;5.03;;
7406;SDS011;3745;56.964;24.128;2023-03-12T08:18:36;8.90;;;5.10;;
7406;SDS011;3745;56.964;24.128;2023-03-12T08:21:02;9.27;;;5.53;;
7406;SDS011;3745;56.964;24.128;2023-03-12T08:23:28;7.60;;;5.13;;
7406;SDS011;3745;56.964;24.128;2023-03-12T08:25:53;13.63;;;6.07;;
7406;SDS011;3745;56.964;24.128;2023-03-12T08:28:20;10.70;;;5.63;;
7406;SDS011;3745;56.964;24.128;2023-03-12T08:30:47;10.93;;;5.45;;
7406;SDS011;3745;56.964;24.128;2023-03-12T08:33:14;11.33;;;5.87;;
7406;SDS011;3745;56.964;24.128;2023-03-12T08:35:40;12.17;;;5.23;;
7406;SDS011;3745;56.964;24.128;2023-03-12T08:38:06;6.97;;;4.55;;
7406;SDS011;3745;56.964;24.128;2023-03-12T08:40:32;9.23;;;5.10;;
7406;SDS011;3745;56.964;24.128;2023-03-12T08:42:57;4.82;;;4.18;;
7406;SDS011;3745;56.964;24.128;2023-03-12T08:45:23;4.53;;;3.65;;
7406;SDS011;3745;56.964;24.128;2023-03-12T08:47:48;4.87;;;4.00;;
7406;SDS011;3745;56.964;24.128;2023-03-12T08:50:14;4.93;;;4.33;;
7406;SDS011;3745;56.964;24.128;2023-03-12T08:52:41;4.53;;;3.80;;
7406;SDS011;3745;56.964;24.128;2023-03-12T08:55:07;5.07;;;3.63;;
7406;SDS011;3745;56.964;24.128;2023-03-12T08:57:34;9.45;;;3.78;;
7406;SDS011;3745;56.964;24.128;2023-03-12T09:00:00;4.10;;;3.00;;
7406;SDS011;3745;56.964;24.128;2023-03-12T09:02:26;3.20;;;2.77;;
7406;SDS011;3745;56.964;24.128;2023-03-12T09:04:52;5.72;;;3.30;;
7406;SDS011;3745;56.964;24.128;2023-03-12T09:07:18;4.32;;;3.20;;
7406;SDS011;3745;56.964;24.128;2023-03-12T09:09:43;7.95;;;2.85;;
7406;SDS011;3745;56.964;24.128;2023-03-12T09:12:10;5.35;;;3.05;;
7406;SDS011;3745;56.964;24.128;2023-03-12T09:14:35;3.10;;;2.67;;
7406;SDS011;3745;56.964;24.128;2023-03-12T09:17:01;2.50;;;2.30;;
7406;SDS011;3745;56.964;24.128;2023-03-12T09:19:27;2.20;;;2.08;;
7406;SDS011;3745;56.964;24.128;2023-03-12T09:21:53;2.77;;;2.57;;
7406;SDS011;3745;56.964;24.128;2023-03-12T09:24:19;1.77;;;1.45;;
7406;SDS011;3745;56.964;24.128;2023-03-12T09:26:44;1.85;;;1.75;;
7406;SDS011;3745;56.964;24.128;2023-03-12T09:29:10;2.17;;;1.58;;
7406;SDS011;3745;56.964;24.128;2023-03-12T09:31:35;5.75;;;2.10;;
7406;SDS011;3745;56.964;24.128;2023-03-12T09:34:01;2.35;;;2.22;;
7406;SDS011;3745;56.964;24.128;2023-03-12T09:36:27;2.30;;;2.10;;
7406;SDS011;3745;56.964;24.128;2023-03-12T09:38:53;2.55;;;2.00;;
7406;SDS011;3745;56.964;24.128;2023-03-12T09:41:20;2.75;;;1.67;;
7406;SDS011;3745;56.964;24.128;2023-03-12T09:43:53;2.60;;;1.77;;
7406;SDS011;3745;56.964;24.128;2023-03-12T09:46:55;2.17;;;1.98;;
7406;SDS011;3745;56.964;24.128;2023-03-12T09:49:42;2.00;;;1.90;;
7406;SDS011;3745;56.964;24.128;2023-03-12T09:52:23;1.83;;;1.70;;
7406;SDS011;3745;56.964;24.128;2023-03-12T09:55:18;4.20;;;2.33;;
7406;SDS011;3745;56.964;24.128;2023-03-12T09:57:46;3.45;;;2.03;;
7406;SDS011;3745;56.964;24.128;2023-03-12T10:00:26;3.33;;;2.20;;
7406;SDS011;3745;56.964;24.128;2023-03-12T10:05:38;3.92;;;2.65;;
7406;SDS011;3745;56.964;24.128;2023-03-12T10:13:16;2.90;;;2.40;;
7406;SDS011;3745;56.964;24.128;2023-03-12T10:21:10;2.28;;;2.08;;
7406;SDS011;3745;56.964;24.128;2023-03-12T10:26:45;5.03;;;1.35;;
7406;SDS011;3745;56.964;24.128;2023-03-12T10:29:16;1.60;;;1.50;;
7406;SDS011;3745;56.964;24.128;2023-03-12T10:31:51;1.90;;;1.52;;
7406;SDS011;3745;56.964;24.128;2023-03-12T10:39:40;4.18;;;1.80;;
7406;SDS011;3745;56.964;24.128;2023-03-12T10:42:20;2.63;;;2.03;;
7406;SDS011;3745;56.964;24.128;2023-03-12T10:44:51;2.45;;;2.25;;
7406;SDS011;3745;56.964;24.128;2023-03-12T10:50:13;1.48;;;1.48;;
7406;SDS011;3745;56.964;24.128;2023-03-12T10:52:44;1.85;;;1.70;;
7406;SDS011;3745;56.964;24.128;2023-03-12T10:55:12;1.63;;;1.00;;
7406;SDS011;3745;56.964;24.128;2023-03-12T10:57:54;1.98;;;1.30;;
7406;SDS011;3745;56.964;24.128;2023-03-12T11:00:27;1.55;;;1.45;;
7406;SDS011;3745;56.964;24.128;2023-03-12T11:05:33;1.65;;;1.55;;
7406;SDS011;3745;56.964;24.128;2023-03-12T11:08:01;1.73;;;1.63;;
7406;SDS011;3745;56.964;24.128;2023-03-12T11:13:04;2.33;;;1.63;;
7406;SDS011;3745;56.964;24.128;2023-03-12T11:15:45;1.70;;;1.60;;
7406;SDS011;3745;56.964;24.128;2023-03-12T11:18:25;1.70;;;1.60;;
7406;SDS011;3745;56.964;24.128;2023-03-12T11:20:55;3.95;;;1.77;;
7406;SDS011;3745;56.964;24.128;2023-03-12T11:23:33;1.25;;;1.20;;
7406;SDS011;3745;56.964;24.128;2023-03-12T11:26:00;3.15;;;1.27;;
7406;SDS011;3745;56.964;24.128;2023-03-12T11:28:43;1.08;;;1.08;;
7406;SDS011;3745;56.964;24.128;2023-03-12T11:31:26;1.38;;;1.27;;
7406;SDS011;3745;56.964;24.128;2023-03-12T11:33:57;1.50;;;1.40;;
7406;SDS011;3745;56.964;24.128;2023-03-12T11:39:31;1.58;;;1.20;;
7406;SDS011;3745;56.964;24.128;2023-03-12T11:42:47;1.30;;;1.17;;
7406;SDS011;3745;56.964;24.128;2023-03-12T11:50:56;1.85;;;1.50;;
7406;SDS011;3745;56.964;24.128;2023-03-12T11:59:30;1.63;;;1.52;;
7406;SDS011;3745;56.964;24.128;2023-03-12T12:04:59;1.23;;;1.23;;
7406;SDS011;3745;56.964;24.128;2023-03-12T12:10:40;1.58;;;1.48;;
7406;SDS011;3745;56.964;24.128;2023-03-12T12:13:19;2.45;;;1.88;;
7406;SDS011;3745;56.964;24.128;2023-03-12T12:27:04;2.03;;;1.10;;
7406;SDS011;3745;56.964;24.128;2023-03-12T12:35:23;1.40;;;1.30;;
7406;SDS011;3745;56.964;24.128;2023-03-12T12:40:58;1.13;;;1.13;;
7406;SDS011;3745;56.964;24.128;2023-03-12T12:46:01;1.02;;;1.02;;
7406;SDS011;3745;56.964;24.128;2023-03-12T12:51:07;1.30;;;1.20;;
7406;SDS011;3745;56.964;24.128;2023-03-12T13:01:30;1.13;;;0.85;;
7406;SDS011;3745;56.964;24.128;2023-03-12T13:04:08;1.23;;;1.23;;
7406;SDS011;3745;56.964;24.128;2023-03-12T13:06:52;2.03;;;1.52;;
7406;SDS011;3745;56.964;24.128;2023-03-12T13:09:39;1.45;;;1.30;;
7406;SDS011;3745;56.964;24.128;2023-03-12T13:12:31;1.10;;;1.10;;
7406;SDS011;3745;56.964;24.128;2023-03-12T13:15:31;1.98;;;0.93;;
7406;SDS011;3745;56.964;24.128;2023-03-12T13:20:18;1.00;;;1.00;;
7406;SDS011;3745;56.964;24.128;2023-03-12T13:28:31;0.85;;;0.85;;
7406;SDS011;3745;56.964;24.128;2023-03-12T13:33:48;0.77;;;0.77;;
7406;SDS011;3745;56.964;24.128;2023-03-12T13:47:05;1.20;;;1.20;;
7406;SDS011;3745;56.964;24.128;2023-03-12T13:52:16;0.80;;;0.80;;
7406;SDS011;3745;56.964;24.128;2023-03-12T13:54:43;0.90;;;0.90;;
7406;SDS011;3745;56.964;24.128;2023-03-12T13:57:20;2.05;;;0.98;;
7406;SDS011;3745;56.964;24.128;2023-03-12T13:59:56;1.30;;;0.70;;
7406;SDS011;3745;56.964;24.128;2023-03-12T14:02:31;2.03;;;1.00;;
7406;SDS011;3745;56.964;24.128;2023-03-12T14:05:02;1.45;;;0.98;;
7406;SDS011;3745;56.964;24.128;2023-03-12T14:07:39;1.35;;;0.90;;
7406;SDS011;3745;56.964;24.128;2023-03-12T14:10:17;1.10;;;1.08;;
7406;SDS011;3745;56.964;24.128;2023-03-12T14:13:15;2.15;;;1.10;;
7406;SDS011;3745;56.964;24.128;2023-03-12T14:16:05;1.45;;;1.35;;
7406;SDS011;3745;56.964;24.128;2023-03-12T14:18:41;1.38;;;1.27;;
7406;SDS011;3745;56.964;24.128;2023-03-12T14:21:09;6.25;;;1.40;;
7406;SDS011;3745;56.964;24.128;2023-03-12T14:23:54;1.20;;;1.10;;
7406;SDS011;3745;56.964;24.128;2023-03-12T14:26:23;0.90;;;0.90;;
7406;SDS011;3745;56.964;24.128;2023-03-12T14:32:03;1.20;;;0.82;;
7406;SDS011;3745;56.964;24.128;2023-03-12T14:34:32;0.75;;;0.75;;
7406;SDS011;3745;56.964;24.128;2023-03-12T14:39:53;0.82;;;0.82;;
7406;SDS011;3745;56.964;24.128;2023-03-12T14:42:22;0.90;;;0.90;;
7406;SDS011;3745;56.964;24.128;2023-03-12T14:47:48;0.93;;;0.93;;
7406;SDS011;3745;56.964;24.128;2023-03-12T14:50:23;1.25;;;1.15;;
7406;SDS011;3745;56.964;24.128;2023-03-12T14:52:54;1.20;;;1.10;;
7406;SDS011;3745;56.964;24.128;2023-03-12T14:55:35;1.23;;;1.13;;
7406;SDS011;3745;56.964;24.128;2023-03-12T14:58:04;1.48;;;1.38;;
7406;SDS011;3745;56.964;24.128;2023-03-12T15:00:38;1.20;;;1.10;;
7406;SDS011;3745;56.964;24.128;2023-03-12T15:03:04;1.75;;;1.08;;
7406;SDS011;3745;56.964;24.128;2023-03-12T15:05:49;2.30;;;1.10;;
7406;SDS011;3745;56.964;24.128;2023-03-12T15:08:16;1.10;;;1.00;;
7406;SDS011;3745;56.964;24.128;2023-03-12T15:10:49;1.92;;;1.15;;
7406;SDS011;3745;56.964;24.128;2023-03-12T15:13:17;1.05;;;1.05;;
7406;SDS011;3745;56.964;24.128;2023-03-12T15:15:46;1.10;;;1.10;;
7406;SDS011;3745;56.964;24.128;2023-03-12T15:18:19;0.80;;;0.80;;
7406;SDS011;3745;56.964;24.128;2023-03-12T15:20:53;1.42;;;1.08;;
7406;SDS011;3745;56.964;24.128;2023-03-12T15:23:22;1.05;;;1.05;;
7406;SDS011;3745;56.964;24.128;2023-03-12T15:28:33;0.95;;;0.95;;
7406;SDS011;3745;56.964;24.128;2023-03-12T15:31:03;2.20;;;0.93;;
7406;SDS011;3745;56.964;24.128;2023-03-12T15:33:32;2.60;;;1.55;;
7406;SDS011;3745;56.964;24.128;2023-03-12T15:38:26;1.92;;;1.20;;
7406;SDS011;3745;56.964;24.128;2023-03-12T15:40:53;1.33;;;1.15;;
7406;SDS011;3745;56.964;24.128;2023-03-12T15:43:21;2.83;;;1.63;;
7406;SDS011;3745;56.964;24.128;2023-03-12T15:45:55;1.90;;;1.80;;
7406;SDS011;3745;56.964;24.128;2023-03-12T15:48:25;1.80;;;1.60;;
7406;SDS011;3745;56.964;24.128;2023-03-12T15:51:00;2.27;;;2.10;;
7406;SDS011;3745;56.964;24.128;2023-03-12T15:55:57;2.28;;;2.03;;
7406;SDS011;3745;56.964;24.128;2023-03-12T15:58:32;2.00;;;1.80;;
7406;SDS011;3745;56.964;24.128;2023-03-12T16:03:39;2.72;;;2.40;;
7406;SDS011;3745;56.964;24.128;2023-03-12T16:06:10;3.33;;;2.30;;
7406;SDS011;3745;56.964;24.128;2023-03-12T16:08:44;2.60;;;2.40;;
7406;SDS011;3745;56.964;24.128;2023-03-12T16:11:16;2.17;;;1.97;;
7406;SDS011;3745;56.964;24.128;2023-03-12T16:13:51;2.50;;;2.30;;
7406;SDS011;3745;56.964;24.128;2023-03-12T16:16:21;2.87;;;2.60;;
7406;SDS011;3745;56.964;24.128;2023-03-12T16:18:47;2.80;;;2.50;;
7406;SDS011;3745;56.964;24.128;2023-03-12T16:21:12;3.00;;;2.70;;
7406;SDS011;3745;56.964;24.128;2023-03-12T16:23:38;3.40;;;2.97;;
7406;SDS011;3745;56.964;24.128;2023-03-12T16:26:04;3.25;;;3.05;;
7406;SDS011;3745;56.964;24.128;2023-03-12T16:28:32;4.17;;;3.40;;
7406;SDS011;3745;56.964;24.128;2023-03-12T16:30:59;4.70;;;3.53;;
7406;SDS011;3745;56.964;24.128;2023-03-12T16:33:25;5.77;;;3.93;;
7406;SDS011;3745;56.964;24.128;2023-03-12T16:35:50;8.00;;;3.70;;
7406;SDS011;3745;56.964;24.128;2023-03-12T16:38:16;5.87;;;3.40;;
7406;SDS011;3745;56.964;24.128;2023-03-12T16:40:46;4.10;;;3.20;;
7406;SDS011;3745;56.964;24.128;2023-03-12T16:43:15;4.57;;;3.23;;
7406;SDS011;3745;56.964;24.128;2023-03-12T16:45:44;6.47;;;3.70;;
7406;SDS011;3745;56.964;24.128;2023-03-12T16:48:18;5.30;;;3.50;;
7406;SDS011;3745;56.964;24.128;2023-03-12T16:50:51;4.47;;;3.43;;
7406;SDS011;3745;56.964;24.128;2023-03-12T16:53:18;4.73;;;3.73;;
7406;SDS011;3745;56.964;24.128;2023-03-12T16:55:57;4.63;;;3.27;;
7406;SDS011;3745;56.964;24.128;2023-03-12T16:58:25;4.03;;;3.27;;
7406;SDS011;3745;56.964;24.128;2023-03-12T17:00:52;5.87;;;4.23;;
7406;SDS011;3745;56.964;24.128;2023-03-12T17:05:47;5.70;;;4.30;;
7406;SDS011;3745;56.964;24.128;2023-03-12T17:08:13;9.27;;;4.80;;
7406;SDS011;3745;56.964;24.128;2023-03-12T17:10:40;6.97;;;4.60;;
7406;SDS011;3745;56.964;24.128;2023-03-12T17:13:06;7.07;;;4.47;;
7406;SDS011;3745;56.964;24.128;2023-03-12T17:15:31;9.13;;;4.73;;
7406;SDS011;3745;56.964;24.128;2023-03-12T17:17:58;9.97;;;4.70;;
7406;SDS011;3745;56.964;24.128;2023-03-12T17:20:28;5.80;;;4.43;;
7406;SDS011;3745;56.964;24.128;2023-03-12T17:23:00;5.60;;;4.27;;
7406;SDS011;3745;56.964;24.128;2023-03-12T17:25:28;5.47;;;4.43;;
7406;SDS011;3745;56.964;24.128;2023-03-12T17:27:56;9.60;;;5.37;;
7406;SDS011;3745;56.964;24.128;2023-03-12T17:30:23;7.63;;;5.23;;